Time;durP1;ratioP1;P1;durP2;ratioP2;P2;SDS_P1;SDS_P2;PMS_P1;PMS_P2;Temp;Humidity;BMP_temperature;BMP_pressure;BME280_temperature;BME280_humidity;BME280_pressure;Samples;Min_cycle;Max_cycle;Signal;HPM_P1;HPM_P2
2021/01/09 00:02:14;;;;;;;18.20;8.73;;;1.60;91.90;;;;;;5092918;28;20051;-81
2021/01/09 00:04:40;;;;;;;19.13;8.20;;;1.70;92.10;;;;;;5092952;28;20055;-81
2021/01/09 00:07:10;;;;;;;19.23;9.20;;;1.60;92.00;;;;;;5092910;28;20032;-81
2021/01/09 00:09:39;;;;;;;15.37;8.00;;;1.60;91.90;;;;;;5092905;28;20055;-81
2021/01/09 00:12:09;;;;;;;16.70;8.77;;;1.60;91.90;;;;;;5075819;28;20055;-82
2021/01/09 00:14:35;;;;;;;16.67;8.60;;;1.60;91.90;;;;;;5092514;28;20073;-81
2021/01/09 00:17:01;;;;;;;15.23;7.53;;;1.60;92.00;;;;;;5092803;28;20392;-81
2021/01/09 00:19:26;;;;;;;13.20;6.67;;;1.60;92.00;;;;;;5075872;28;20032;-81
2021/01/09 00:21:52;;;;;;;12.97;7.37;;;1.60;92.00;;;;;;5094136;28;20024;-81
2021/01/09 00:24:18;;;;;;;14.47;7.40;;;1.60;92.10;;;;;;5075801;28;20119;-81
2021/01/09 00:26:43;;;;;;;14.10;7.37;;;1.60;92.20;;;;;;5093953;28;20113;-82
2021/01/09 00:29:09;;;;;;;14.43;7.13;;;1.70;92.20;;;;;;5092516;28;20032;-82
2021/01/09 00:31:35;;;;;;;14.03;6.90;;;1.70;92.40;;;;;;5093737;28;20437;-81
2021/01/09 00:34:01;;;;;;;16.77;8.30;;;1.70;92.20;;;;;;5092187;28;20124;-81
2021/01/09 00:36:26;;;;;;;15.10;7.07;;;1.60;92.20;;;;;;5075625;28;20055;-81
2021/01/09 00:38:52;;;;;;;15.13;7.43;;;1.70;92.20;;;;;;5092573;28;20360;-81
2021/01/09 00:41:28;;;;;;;13.37;6.53;;;1.70;92.20;;;;;;5092386;28;20024;-81
2021/01/09 00:43:54;;;;;;;14.47;6.93;;;1.70;92.20;;;;;;5075642;28;20036;-81
2021/01/09 00:46:20;;;;;;;12.07;7.07;;;1.70;92.20;;;;;;5092409;28;20393;-82
2021/01/09 00:48:45;;;;;;;12.53;7.07;;;1.70;92.20;;;;;;5092295;28;20040;-82
2021/01/09 00:51:12;;;;;;;13.93;6.87;;;1.70;92.10;;;;;;5092007;28;20052;-82
2021/01/09 00:53:38;;;;;;;13.10;6.30;;;1.70;92.40;;;;;;5075276;28;20035;-81
2021/01/09 00:56:05;;;;;;;14.50;7.13;;;1.70;92.10;;;;;;5092088;28;20430;-82
2021/01/09 00:58:30;;;;;;;12.77;6.57;;;1.60;92.10;;;;;;5092089;28;20024;-74
2021/01/09 01:00:56;;;;;;;13.40;6.53;;;1.60;92.00;;;;;;5092350;28;20035;-81
2021/01/09 01:03:22;;;;;;;13.97;6.77;;;1.60;92.00;;;;;;5095095;28;20029;-81
2021/01/09 01:05:47;;;;;;;15.63;7.60;;;1.50;92.00;;;;;;5096251;28;20101;-81
2021/01/09 01:08:13;;;;;;;15.90;6.87;;;1.50;92.00;;;;;;5079590;28;20036;-81
2021/01/09 01:10:38;;;;;;;14.03;6.60;;;1.50;92.00;;;;;;5079267;28;20040;-81
2021/01/09 01:13:04;;;;;;;13.40;7.17;;;1.40;92.00;;;;;;5097426;28;20074;-81
2021/01/09 01:15:29;;;;;;;16.00;7.43;;;1.40;92.00;;;;;;5079095;28;20052;-81
2021/01/09 01:17:55;;;;;;;14.60;7.50;;;1.40;92.00;;;;;;5097288;28;20077;-82
2021/01/09 01:20:21;;;;;;;14.77;7.57;;;1.40;92.00;;;;;;5096005;28;20031;-82
2021/01/09 01:22:46;;;;;;;14.40;7.10;;;1.30;92.00;;;;;;5095864;28;20406;-82
2021/01/09 01:25:12;;;;;;;16.43;7.83;;;1.40;92.30;;;;;;5097375;28;20544;-82
2021/01/09 01:27:38;;;;;;;13.63;6.80;;;1.30;92.00;;;;;;5078862;28;20028;-81
2021/01/09 01:30:04;;;;;;;13.63;6.53;;;1.30;92.00;;;;;;5062340;28;20082;-81
2021/01/09 01:32:31;;;;;;;15.00;6.43;;;1.30;92.10;;;;;;5097027;28;20036;-81
2021/01/09 01:34:57;;;;;;;14.47;7.40;;;1.20;92.00;;;;;;5097023;28;20111;-81
2021/01/09 01:37:22;;;;;;;13.57;6.67;;;1.20;92.00;;;;;;5079076;28;20126;-74
2021/01/09 01:39:48;;;;;;;13.20;6.47;;;1.20;92.10;;;;;;5095705;28;20035;-74
2021/01/09 01:42:14;;;;;;;16.43;7.00;;;1.20;92.10;;;;;;5096712;28;20028;-74
2021/01/09 01:44:39;;;;;;;17.07;7.80;;;1.20;92.20;;;;;;5095544;28;20488;-74
2021/01/09 01:47:17;;;;;;;13.57;6.30;;;1.20;92.30;;;;;;5095545;28;20036;-74
2021/01/09 01:49:45;;;;;;;13.13;7.00;;;1.20;92.30;;;;;;5095403;28;20122;-74
2021/01/09 01:52:18;;;;;;;16.50;7.47;;;1.10;92.20;;;;;;5095025;28;20468;-74
2021/01/09 01:54:45;;;;;;;15.37;7.67;;;1.10;92.30;;;;;;5061843;28;20035;-74
2021/01/09 01:57:12;;;;;;;15.10;7.17;;;1.10;92.30;;;;;;5096377;28;20030;-74
2021/01/09 01:59:39;;;;;;;16.63;7.57;;;1.00;92.30;;;;;;5096470;28;20048;-74
2021/01/09 02:02:07;;;;;;;13.77;7.33;;;1.00;92.30;;;;;;5095193;28;20020;-74
2021/01/09 02:04:32;;;;;;;18.63;8.40;;;1.00;92.40;;;;;;5095289;28;20077;-74
2021/01/09 02:07:05;;;;;;;15.73;7.77;;;1.00;92.40;;;;;;5078796;28;20111;-74
2021/01/09 02:09:35;;;;;;;16.90;7.77;;;1.10;92.50;;;;;;5096231;28;20032;-75
2021/01/09 02:12:05;;;;;;;16.27;7.47;;;1.00;92.50;;;;;;5096194;28;20158;-74
2021/01/09 02:14:45;;;;;;;15.20;8.50;;;1.10;92.50;;;;;;5095869;28;20043;-74
2021/01/09 02:17:12;;;;;;;13.23;7.10;;;1.00;92.50;;;;;;5096116;28;20028;-74
2021/01/09 02:19:39;;;;;;;18.07;9.00;;;1.00;92.50;;;;;;5094969;28;20077;-74
2021/01/09 02:22:08;;;;;;;15.57;7.43;;;1.00;92.50;;;;;;5095865;28;20031;-75
2021/01/09 02:24:34;;;;;;;16.47;7.07;;;1.00;92.50;;;;;;5094926;28;20043;-74
2021/01/09 02:27:02;;;;;;;14.40;7.73;;;1.00;92.60;;;;;;5061721;28;20425;-74
2021/01/09 02:29:31;;;;;;;16.17;7.70;;;1.00;92.50;;;;;;5096558;28;20341;-74
2021/01/09 02:32:06;;;;;;;15.37;6.80;;;1.00;92.50;;;;;;5094647;28;20028;-74
2021/01/09 02:34:54;;;;;;;15.90;6.80;;;0.90;92.40;;;;;;5092514;28;20028;-74
2021/01/09 02:37:20;;;;;;;15.07;6.80;;;0.90;92.40;;;;;;5094124;28;20435;-74
2021/01/09 02:39:46;;;;;;;13.87;6.73;;;0.90;92.40;;;;;;5077157;28;20062;-74
2021/01/09 02:42:12;;;;;;;15.57;6.53;;;0.80;92.40;;;;;;5061198;28;20060;-74
2021/01/09 02:44:38;;;;;;;14.40;6.70;;;0.80;92.30;;;;;;5095022;28;20028;-74
2021/01/09 02:47:05;;;;;;;16.43;7.43;;;0.80;92.30;;;;;;5094380;28;20032;-74
2021/01/09 02:49:31;;;;;;;15.07;7.10;;;0.80;92.30;;;;;;5077562;28;20028;-74
2021/01/09 02:51:56;;;;;;;16.13;7.20;;;0.80;92.40;;;;;;5093946;28;20375;-74
2021/01/09 02:54:22;;;;;;;13.90;6.63;;;0.70;92.60;;;;;;5060526;28;20070;-74
2021/01/09 02:56:48;;;;;;;13.77;6.70;;;0.70;92.30;;;;;;5060569;28;20024;-74
2021/01/09 02:59:13;;;;;;;12.40;6.43;;;0.70;92.30;;;;;;5077330;28;20024;-74
2021/01/09 03:01:39;;;;;;;15.40;6.83;;;0.60;92.20;;;;;;5077402;28;20032;-74
2021/01/09 03:04:05;;;;;;;13.97;6.30;;;0.60;92.30;;;;;;5093989;28;20035;-74
2021/01/09 03:06:30;;;;;;;15.50;6.20;;;0.60;92.30;;;;;;5077572;28;20028;-74
2021/01/09 03:08:56;;;;;;;13.90;6.90;;;0.60;92.30;;;;;;5077012;28;20536;-74
2021/01/09 03:11:22;;;;;;;14.27;6.47;;;0.60;92.30;;;;;;5093958;28;20036;-74
2021/01/09 03:13:48;;;;;;;11.97;6.03;;;0.50;92.30;;;;;;5076832;28;20443;-74
2021/01/09 03:16:14;;;;;;;20.43;6.93;;;0.50;92.30;;;;;;5093780;28;20110;-74
2021/01/09 03:18:40;;;;;;;12.07;6.50;;;0.50;92.30;;;;;;5076826;28;20032;-75
2021/01/09 03:21:06;;;;;;;13.30;7.10;;;0.50;92.30;;;;;;5076716;28;20032;-75
2021/01/09 03:23:32;;;;;;;13.47;6.67;;;0.50;92.40;;;;;;5077253;28;20066;-74
2021/01/09 03:25:57;;;;;;;17.17;8.00;;;0.40;92.30;;;;;;5075964;28;20036;-74
2021/01/09 03:28:23;;;;;;;14.03;6.93;;;0.40;92.30;;;;;;5092963;28;20475;-74
2021/01/09 03:30:49;;;;;;;14.33;6.97;;;0.40;92.30;;;;;;5076816;28;20039;-74
2021/01/09 03:33:15;;;;;;;16.17;7.03;;;0.40;92.30;;;;;;5094716;28;20114;-74
2021/01/09 03:35:42;;;;;;;13.87;6.40;;;0.40;92.30;;;;;;5076818;28;20032;-74
2021/01/09 03:38:07;;;;;;;18.40;7.47;;;0.30;92.30;;;;;;5076678;28;20032;-74
2021/01/09 03:40:33;;;;;;;11.87;6.17;;;0.30;92.30;;;;;;5093337;28;20391;-74
2021/01/09 03:42:58;;;;;;;15.83;6.93;;;0.30;92.40;;;;;;5076423;28;20028;-74
2021/01/09 03:45:24;;;;;;;14.37;7.97;;;0.20;92.30;;;;;;5093176;28;20056;-74
2021/01/09 03:47:50;;;;;;;14.40;6.63;;;0.20;92.30;;;;;;5093168;28;20077;-74
2021/01/09 03:50:15;;;;;;;15.37;6.33;;;0.20;92.30;;;;;;5076519;28;20036;-74
2021/01/09 03:52:41;;;;;;;15.37;6.90;;;0.20;92.30;;;;;;5093092;28;20043;-74
2021/01/09 03:55:07;;;;;;;14.17;6.47;;;0.10;92.40;;;;;;5092999;28;20059;-74
2021/01/09 03:57:33;;;;;;;15.10;6.70;;;0.10;92.40;;;;;;5093090;28;20094;-74
2021/01/09 03:59:58;;;;;;;13.50;6.47;;;0.10;92.40;;;;;;5059382;28;20028;-74
2021/01/09 04:02:24;;;;;;;13.23;6.83;;;0.10;92.40;;;;;;5075868;28;20028;-74
2021/01/09 04:04:50;;;;;;;14.30;6.83;;;0.10;92.40;;;;;;5076323;28;20082;-74
2021/01/09 04:07:15;;;;;;;15.40;7.07;;;0.00;92.40;;;;;;5075892;28;20451;-74
2021/01/09 04:09:41;;;;;;;14.23;6.93;;;0.00;92.50;;;;;;5093462;28;20063;-74
2021/01/09 04:12:07;;;;;;;12.47;5.80;;;0.00;92.50;;;;;;5075965;28;20059;-74
2021/01/09 04:14:32;;;;;;;16.90;7.00;;;0.10;92.50;;;;;;5092578;28;20032;-74
2021/01/09 04:16:58;;;;;;;16.43;7.70;;;-0.10;92.80;;;;;;5076295;28;20468;-74
2021/01/09 04:19:24;;;;;;;16.03;7.17;;;-0.10;92.60;;;;;;5059012;28;20043;-74
2021/01/09 04:21:51;;;;;;;12.43;6.40;;;-0.10;92.60;;;;;;5092518;28;20064;-74
2021/01/09 04:24:18;;;;;;;16.37;7.27;;;-0.10;92.60;;;;;;5094075;28;20035;-74
2021/01/09 04:26:44;;;;;;;15.23;7.00;;;-0.10;92.60;;;;;;5075835;28;20024;-74
2021/01/09 04:29:09;;;;;;;13.50;6.50;;;-0.10;92.60;;;;;;5093937;28;20039;-74
2021/01/09 04:31:35;;;;;;;15.93;7.03;;;-0.10;92.70;;;;;;5093939;28;20071;-74
2021/01/09 04:34:00;;;;;;;15.93;7.17;;;-0.10;92.70;;;;;;5075418;28;20039;-74
2021/01/09 04:36:26;;;;;;;15.67;6.63;;;-0.20;92.70;;;;;;5092437;28;20120;-74
2021/01/09 04:38:51;;;;;;;13.97;6.50;;;-0.20;92.70;;;;;;5075075;28;20032;-74
2021/01/09 04:41:21;;;;;;;14.67;7.07;;;-0.20;92.70;;;;;;5092350;28;20372;-74
2021/01/09 04:43:48;;;;;;;16.90;7.27;;;-0.20;92.70;;;;;;5092364;28;20036;-74
2021/01/09 04:46:16;;;;;;;12.83;6.63;;;-0.20;92.70;;;;;;5092206;28;20506;-74
2021/01/09 04:48:43;;;;;;;15.57;6.80;;;-0.20;92.80;;;;;;5092330;28;20020;-74
2021/01/09 04:51:09;;;;;;;11.97;5.67;;;-0.20;92.80;;;;;;5093152;28;20103;-74
2021/01/09 04:53:37;;;;;;;14.20;5.97;;;-0.20;92.70;;;;;;5075187;28;20278;-74
2021/01/09 04:56:03;;;;;;;14.60;6.90;;;-0.30;92.70;;;;;;5092009;28;20294;-74
2021/01/09 04:58:31;;;;;;;13.23;5.87;;;-0.30;92.70;;;;;;5092052;28;20298;-74
2021/01/09 05:00:57;;;;;;;12.03;6.03;;;-0.30;92.70;;;;;;5091686;28;20343;-75
2021/01/09 05:03:23;;;;;;;10.87;5.40;;;-0.30;92.80;;;;;;5074810;28;20028;-74
2021/01/09 05:05:49;;;;;;;14.80;6.47;;;-0.30;92.80;;;;;;5091804;28;20028;-74
2021/01/09 05:08:15;;;;;;;12.03;5.33;;;-0.30;92.80;;;;;;5092036;28;20452;-74
2021/01/09 05:10:41;;;;;;;10.63;5.37;;;-0.30;92.80;;;;;;5075331;28;20111;-74
2021/01/09 05:13:07;;;;;;;12.17;5.53;;;-0.30;92.80;;;;;;5091986;28;20032;-74
2021/01/09 05:15:34;;;;;;;10.37;4.97;;;-0.30;92.80;;;;;;5074532;28;20109;-74
2021/01/09 05:18:00;;;;;;;9.63;5.30;;;-0.30;92.80;;;;;;5092079;28;20028;-74
2021/01/09 05:20:27;;;;;;;11.20;5.70;;;-0.30;92.80;;;;;;5092104;28;20054;-74
2021/01/09 05:22:53;;;;;;;10.70;5.27;;;-0.30;92.80;;;;;;5075053;28;20028;-75
2021/01/09 05:25:24;;;;;;;10.53;4.93;;;-0.30;93.10;;;;;;5092578;28;20367;-75
2021/01/09 05:27:52;;;;;;;11.80;5.27;;;-0.40;92.80;;;;;;5093259;28;20077;-74
2021/01/09 05:30:18;;;;;;;13.63;5.83;;;-0.40;92.70;;;;;;5093153;28;20281;-74
2021/01/09 05:32:44;;;;;;;11.33;5.67;;;-0.40;92.70;;;;;;5091755;28;20479;-74
2021/01/09 05:35:13;;;;;;;10.93;5.20;;;-0.40;92.70;;;;;;5092014;28;20282;-82
2021/01/09 05:37:38;;;;;;;10.57;5.03;;;-0.40;92.70;;;;;;5093098;28;20032;-81
2021/01/09 05:40:05;;;;;;;10.43;5.13;;;-0.40;92.80;;;;;;5091827;28;20290;-82
2021/01/09 05:42:33;;;;;;;10.63;4.90;;;-0.50;92.80;;;;;;5091662;28;20111;-81
2021/01/09 05:44:58;;;;;;;11.03;5.00;;;-0.50;92.80;;;;;;5091752;28;20039;-81
2021/01/09 05:47:29;;;;;;;10.77;4.97;;;-0.50;92.80;;;;;;5091788;28;20024;-81
2021/01/09 05:49:59;;;;;;;10.97;5.30;;;-0.50;92.70;;;;;;5092677;28;20396;-82
2021/01/09 05:52:27;;;;;;;13.17;5.80;;;-0.60;92.70;;;;;;5096492;28;20298;-81
2021/01/09 05:54:57;;;;;;;10.57;4.90;;;-0.60;92.70;;;;;;5095332;28;20024;-81
2021/01/09 05:57:28;;;;;;;9.37;4.73;;;-0.60;92.70;;;;;;5095902;28;20286;-81
2021/01/09 05:59:57;;;;;;;11.67;5.37;;;-0.60;92.70;;;;;;5095476;28;20309;-81
2021/01/09 06:02:24;;;;;;;11.43;5.07;;;-0.60;92.80;;;;;;5096727;28;20282;-81
2021/01/09 06:04:54;;;;;;;15.93;5.40;;;-0.60;92.80;;;;;;5095374;28;20278;-81
2021/01/09 06:07:24;;;;;;;11.93;5.40;;;-0.60;92.80;;;;;;5096609;28;20281;-81
2021/01/09 06:09:57;;;;;;;14.10;6.43;;;-0.70;92.80;;;;;;5095287;28;20327;-81
2021/01/09 06:12:26;;;;;;;11.00;5.10;;;-0.70;92.80;;;;;;5078111;28;20645;-81
2021/01/09 06:14:53;;;;;;;13.67;6.07;;;-0.70;92.90;;;;;;5095041;28;20294;-81
2021/01/09 06:17:21;;;;;;;13.87;6.40;;;-0.70;92.90;;;;;;5095272;28;20412;-82
2021/01/09 06:19:47;;;;;;;11.57;5.70;;;-0.70;92.90;;;;;;5095965;28;20285;-81
2021/01/09 06:22:13;;;;;;;13.40;5.30;;;-0.80;92.90;;;;;;5096180;28;20278;-81
2021/01/09 06:24:39;;;;;;;13.03;6.23;;;-0.80;92.90;;;;;;5084077;28;20028;-81
2021/01/09 06:27:09;;;;;;;12.63;5.73;;;-0.70;93.00;;;;;;5112342;28;20303;-81
2021/01/09 06:29:39;;;;;;;12.93;5.57;;;-0.80;92.90;;;;;;5107264;28;20278;-81
2021/01/09 06:32:08;;;;;;;14.00;5.40;;;-0.80;93.00;;;;;;5106377;28;20282;-81
2021/01/09 06:34:39;;;;;;;11.53;5.80;;;-0.80;92.90;;;;;;5106558;28;20381;-82
2021/01/09 06:37:05;;;;;;;11.57;5.80;;;-0.80;93.00;;;;;;5105019;28;20274;-82
2021/01/09 06:39:35;;;;;;;11.23;5.60;;;-0.80;93.00;;;;;;5104436;28;20298;-82
2021/01/09 06:42:04;;;;;;;13.53;5.23;;;-0.80;93.00;;;;;;5104665;28;20280;-82
2021/01/09 06:44:31;;;;;;;12.33;6.00;;;-0.80;93.10;;;;;;5105846;28;20352;-82
2021/01/09 06:46:57;;;;;;;13.67;6.20;;;-0.80;93.20;;;;;;5106250;28;20284;-82
2021/01/09 06:49:25;;;;;;;10.80;5.60;;;-0.80;93.30;;;;;;5105081;28;20293;-81
2021/01/09 06:52:01;;;;;;;10.23;5.07;;;-0.70;93.40;;;;;;5102547;28;20305;-81
2021/01/09 06:54:37;;;;;;;12.80;5.70;;;-0.70;93.50;;;;;;5095677;28;20301;-81
2021/01/09 06:57:02;;;;;;;11.93;5.67;;;-0.70;93.50;;;;;;5096216;28;20286;-82
2021/01/09 06:59:29;;;;;;;12.30;5.93;;;-0.60;93.60;;;;;;5097712;28;20327;-81
2021/01/09 07:02:16;;;;;;;12.77;5.27;;;-0.60;93.60;;;;;;5097099;28;20039;-82
2021/01/09 07:04:57;;;;;;;13.10;5.80;;;-0.60;93.50;;;;;;5094823;28;20364;-82
2021/01/09 07:07:30;;;;;;;12.07;5.77;;;-0.60;93.50;;;;;;5095616;28;20278;-81
2021/01/09 07:10:24;;;;;;;9.87;5.10;;;-0.60;93.50;;;;;;5094073;28;20284;-82
2021/01/09 07:12:53;;;;;;;;;;;-0.50;93.50;;;;;;5095851;28;20284;-82
2021/01/09 07:15:20;;;;;;;11.43;5.03;;;-0.50;93.40;;;;;;5094040;28;19908;-82
2021/01/09 07:17:59;;;;;;;11.77;5.00;;;-0.50;93.30;;;;;;5077407;28;20270;-82
2021/01/09 07:20:58;;;;;;;12.50;4.90;;;-0.50;93.30;;;;;;5093993;28;20266;-82
2021/01/09 07:23:26;;;;;;;10.03;4.97;;;-0.50;93.20;;;;;;5072022;28;20284;-82
2021/01/09 07:25:54;;;;;;;11.40;5.50;;;-0.50;93.20;;;;;;5093970;28;20089;-82
2021/01/09 07:28:22;;;;;;;12.70;5.57;;;-0.50;93.20;;;;;;5093998;28;20315;-82
2021/01/09 07:31:03;;;;;;;11.73;5.73;;;-0.70;93.20;;;;;;5093934;28;20292;-81
2021/01/09 07:33:32;;;;;;;14.20;6.17;;;-0.60;93.60;;;;;;5086157;28;20282;-82
2021/01/09 07:35:58;;;;;;;12.13;5.87;;;-0.50;93.40;;;;;;5082700;28;20782;-82
2021/01/09 07:38:23;;;;;;;13.47;5.93;;;-0.50;93.50;;;;;;5074414;28;20350;-81
2021/01/09 07:40:54;;;;;;;14.70;6.57;;;-0.50;93.60;;;;;;5085857;28;20801;-82
2021/01/09 07:43:39;;;;;;;15.17;6.00;;;-0.50;93.70;;;;;;5073306;28;20017;-82
2021/01/09 07:46:42;;;;;;;11.43;5.47;;;-0.40;93.80;;;;;;5075027;28;20279;-82
2021/01/09 07:49:27;;;;;;;10.90;5.60;;;-0.40;93.80;;;;;;5073099;28;20028;-83
2021/01/09 07:52:00;;;;;;;10.67;5.40;;;-0.40;93.80;;;;;;5072820;28;20330;-83
2021/01/09 07:54:47;;;;;;;12.03;5.43;;;-0.30;93.80;;;;;;5090761;28;20340;-82
2021/01/09 07:57:19;;;;;;;10.20;5.40;;;-0.30;93.70;;;;;;5094217;28;20278;-81
2021/01/09 07:59:53;;;;;;;13.40;6.30;;;-0.30;93.70;;;;;;5074459;28;20308;-82
2021/01/09 08:02:27;;;;;;;10.83;5.73;;;-0.30;93.70;;;;;;5074447;28;20279;-82
2021/01/09 08:05:15;;;;;;;11.70;5.60;;;-0.20;93.70;;;;;;5075472;28;20033;-83
2021/01/09 08:07:51;;;;;;;10.80;5.70;;;-0.20;93.70;;;;;;5072557;28;20029;-82
2021/01/09 08:10:25;;;;;;;11.50;5.70;;;-0.10;93.80;;;;;;5072822;28;20280;-82
2021/01/09 08:12:53;;;;;;;12.47;6.50;;;-0.10;93.80;;;;;;5073505;28;20271;-84
2021/01/09 08:15:19;;;;;;;13.33;6.00;;;-0.10;93.80;;;;;;5072953;28;20029;-84
2021/01/09 08:17:45;;;;;;;13.23;6.27;;;-0.10;93.80;;;;;;5074397;28;20021;-85
2021/01/09 08:20:12;;;;;;;11.30;6.10;;;-0.10;93.80;;;;;;5056354;28;20036;-85
2021/01/09 08:22:47;;;;;;;14.00;6.30;;;0.00;93.80;;;;;;5073463;28;20025;-84
2021/01/09 08:25:13;;;;;;;11.27;5.77;;;0.00;93.80;;;;;;5074327;28;20052;-85
2021/01/09 08:27:52;;;;;;;12.00;6.00;;;0.10;93.90;;;;;;5074570;28;20040;-83
2021/01/09 08:30:20;;;;;;;12.67;6.77;;;0.10;94.00;;;;;;5072586;28;20123;-84
2021/01/09 08:32:46;;;;;;;15.20;7.37;;;0.20;94.00;;;;;;5076178;28;20034;-83
2021/01/09 08:35:13;;;;;;;12.20;6.63;;;0.20;94.00;;;;;;5057303;28;20118;-83
2021/01/09 08:37:39;;;;;;;15.87;7.00;;;0.30;94.10;;;;;;5071583;28;20376;-83
2021/01/09 08:40:12;;;;;;;13.20;6.83;;;0.30;94.10;;;;;;5067490;28;20029;-84
2021/01/09 08:42:37;;;;;;;12.27;6.40;;;0.40;94.20;;;;;;5074229;28;20119;-84
2021/01/09 08:45:04;;;;;;;13.40;6.80;;;0.50;94.20;;;;;;5083528;28;20047;-85
2021/01/09 08:47:31;;;;;;;13.40;6.80;;;0.50;94.20;;;;;;5080789;28;20027;-84
2021/01/09 08:49:59;;;;;;;11.20;6.33;;;0.60;94.30;;;;;;5083076;28;20021;-84
2021/01/09 08:52:26;;;;;;;12.60;6.27;;;0.70;94.30;;;;;;5079895;28;20079;-86
2021/01/09 08:54:54;;;;;;;10.87;5.90;;;0.80;94.40;;;;;;5081193;28;20078;-85
2021/01/09 08:57:20;;;;;;;10.23;5.87;;;0.80;94.30;;;;;;5087120;28;20471;-83
2021/01/09 08:59:46;;;;;;;14.33;6.10;;;0.90;94.40;;;;;;5074038;28;20020;-85
2021/01/09 09:02:19;;;;;;;12.10;6.00;;;1.00;94.40;;;;;;5096387;28;20421;-85
2021/01/09 09:04:48;;;;;;;10.97;5.77;;;1.10;94.70;;;;;;5091620;28;20485;-85
2021/01/09 09:07:19;;;;;;;14.33;6.10;;;1.20;94.40;;;;;;5092074;28;20085;-85
2021/01/09 09:09:47;;;;;;;15.00;6.37;;;1.20;94.40;;;;;;5092166;28;20050;-85
2021/01/09 09:12:21;;;;;;;15.47;6.53;;;1.30;94.40;;;;;;5092810;28;20050;-85
2021/01/09 09:14:57;;;;;;;15.40;7.03;;;1.30;94.30;;;;;;5092404;28;20021;-85
2021/01/09 09:17:24;;;;;;;13.33;6.40;;;1.30;94.30;;;;;;5092140;28;20028;-84
2021/01/09 09:19:50;;;;;;;14.33;6.60;;;1.40;94.30;;;;;;5091991;28;20020;-84
2021/01/09 09:22:15;;;;;;;14.97;6.77;;;1.40;94.30;;;;;;5092151;28;20027;-84
2021/01/09 09:24:43;;;;;;;13.43;6.87;;;1.50;94.30;;;;;;5094314;28;20024;-85
2021/01/09 09:27:19;;;;;;;15.13;6.63;;;1.60;94.30;;;;;;5096110;28;20529;-85
2021/01/09 09:29:46;;;;;;;13.73;7.10;;;1.60;94.30;;;;;;5095753;28;20555;-87
2021/01/09 09:32:22;;;;;;;13.20;6.93;;;1.70;94.60;;;;;;5096092;28;20388;-86
2021/01/09 09:34:48;;;;;;;12.40;6.30;;;1.80;94.30;;;;;;5097059;28;20116;-85
2021/01/09 09:37:16;;;;;;;13.30;6.63;;;1.90;94.30;;;;;;5095860;28;20115;-86
2021/01/09 09:39:42;;;;;;;13.50;7.10;;;2.00;94.20;;;;;;5062742;28;20387;-86
2021/01/09 09:42:08;;;;;;;12.73;7.00;;;1.90;94.10;;;;;;5097378;28;20016;-85
2021/01/09 09:44:42;;;;;;;11.53;6.17;;;2.20;94.40;;;;;;5080222;28;20383;-86
2021/01/09 09:47:23;;;;;;;14.43;6.83;;;2.30;94.40;;;;;;5096736;28;20020;-86
2021/01/09 09:49:49;;;;;;;12.77;5.90;;;2.50;94.40;;;;;;5096911;28;20110;-86
2021/01/09 09:52:17;;;;;;;11.80;6.30;;;2.70;94.60;;;;;;5098043;28;20104;-86
2021/01/09 09:54:43;;;;;;;11.00;5.87;;;2.90;94.50;;;;;;5098792;28;20052;-87
2021/01/09 09:57:21;;;;;;;10.40;5.00;;;3.00;94.70;;;;;;5096949;28;20081;-85
2021/01/09 10:00:08;;;;;;;9.80;4.93;;;3.60;95.60;;;;;;5096593;28;20020;-85
2021/01/09 10:02:34;;;;;;;7.23;4.00;;;4.30;96.50;;;;;;5095336;28;20039;-84
2021/01/09 10:05:12;;;;;;;9.17;3.73;;;5.20;97.20;;;;;;5096355;28;20032;-84
2021/01/09 10:07:38;;;;;;;8.87;3.60;;;6.10;97.60;;;;;;5095439;28;20024;-86
2021/01/09 10:10:20;;;;;;;8.38;3.28;;;6.90;97.70;;;;;;5062549;28;20491;-86
2021/01/09 10:12:56;;;;;;;8.10;3.30;;;7.60;97.60;;;;;;5079998;28;20407;-86
2021/01/09 10:15:21;;;;;;;7.28;3.53;;;8.50;97.50;;;;;;5096135;28;20028;-86
2021/01/09 10:17:58;;;;;;;6.05;2.80;;;9.40;97.30;;;;;;5097373;28;20024;-86
2021/01/09 10:20:24;;;;;;;5.57;2.90;;;10.30;96.00;;;;;;5089744;28;20031;-87
2021/01/09 10:22:50;;;;;;;6.70;2.80;;;11.20;95.50;;;;;;5083560;28;20029;-86
2021/01/09 10:25:16;;;;;;;7.63;3.45;;;11.90;94.50;;;;;;5101683;28;20068;-86
2021/01/09 10:27:42;;;;;;;6.90;2.80;;;12.40;93.00;;;;;;5089475;28;20028;-83
2021/01/09 10:30:08;;;;;;;6.03;2.65;;;12.40;91.80;;;;;;5096497;28;20072;-83
2021/01/09 10:32:34;;;;;;;9.63;3.72;;;12.10;90.90;;;;;;5097375;28;20020;-83
2021/01/09 10:35:00;;;;;;;7.43;3.35;;;11.70;88.70;;;;;;5095371;28;20051;-83
2021/01/09 10:37:25;;;;;;;8.30;3.35;;;11.40;86.70;;;;;;5096476;28;20479;-83
2021/01/09 10:39:51;;;;;;;10.70;3.40;;;11.00;84.20;;;;;;5096327;28;20023;-83
2021/01/09 10:42:17;;;;;;;10.75;3.85;;;10.50;81.50;;;;;;5096663;28;20058;-83
2021/01/09 10:44:42;;;;;;;10.43;3.50;;;10.10;80.40;;;;;;5078346;28;20392;-83
2021/01/09 10:47:08;;;;;;;7.85;3.10;;;10.00;80.00;;;;;;5078539;28;20119;-84
2021/01/09 10:49:34;;;;;;;9.68;3.60;;;9.90;79.90;;;;;;5070048;28;20032;-82
2021/01/09 10:51:59;;;;;;;6.93;2.97;;;10.00;79.70;;;;;;5067476;28;20083;-82
2021/01/09 10:54:25;;;;;;;7.97;3.00;;;10.10;79.40;;;;;;5092597;28;20020;-82
2021/01/09 10:56:51;;;;;;;8.55;3.40;;;10.40;78.80;;;;;;5093623;28;20042;-82
2021/01/09 10:59:17;;;;;;;7.57;2.75;;;10.60;78.90;;;;;;5095352;28;20032;-82
2021/01/09 11:01:42;;;;;;;8.07;2.72;;;11.00;78.40;;;;;;5093763;28;20020;-82
2021/01/09 11:04:08;;;;;;;6.45;2.90;;;11.40;77.30;;;;;;5074035;28;20021;-82
2021/01/09 11:06:34;;;;;;;7.82;3.42;;;11.70;76.70;;;;;;5065976;28;20405;-82
2021/01/09 11:08:59;;;;;;;8.18;2.75;;;12.20;75.60;;;;;;5093987;28;20028;-83
2021/01/09 11:11:25;;;;;;;6.88;3.03;;;12.50;75.00;;;;;;5073596;28;20104;-82
2021/01/09 11:13:51;;;;;;;5.82;2.92;;;12.70;73.40;;;;;;5075180;28;20024;-83
2021/01/09 11:16:20;;;;;;;7.45;3.78;;;12.60;71.60;;;;;;5073919;28;20024;-83
2021/01/09 11:18:46;;;;;;;7.25;2.67;;;12.40;70.40;;;;;;5057042;28;20525;-83
2021/01/09 11:21:13;;;;;;;5.13;2.40;;;12.60;70.30;;;;;;5073657;28;20029;-84
2021/01/09 11:23:41;;;;;;;7.03;2.60;;;12.50;69.30;;;;;;5074750;28;20380;-84
2021/01/09 11:26:06;;;;;;;8.15;2.75;;;12.50;68.80;;;;;;5074599;28;20028;-84
2021/01/09 11:28:32;;;;;;;6.80;2.65;;;12.30;68.90;;;;;;5056864;28;20035;-85
2021/01/09 11:30:58;;;;;;;8.07;2.28;;;12.50;69.20;;;;;;5074749;28;20082;-84
2021/01/09 11:33:24;;;;;;;6.25;2.15;;;12.90;69.50;;;;;;5074632;28;20078;-85
2021/01/09 11:35:49;;;;;;;7.40;2.75;;;13.20;68.90;;;;;;5074284;28;20024;-85
2021/01/09 11:38:15;;;;;;;6.05;2.70;;;13.40;67.40;;;;;;5073168;28;20028;-84
2021/01/09 11:40:40;;;;;;;11.45;3.08;;;13.40;65.40;;;;;;5073439;28;20118;-85
2021/01/09 11:43:06;;;;;;;7.75;3.20;;;13.40;66.30;;;;;;5073177;28;20464;-85
2021/01/09 11:45:31;;;;;;;7.90;2.78;;;13.50;65.30;;;;;;5073457;28;20029;-85
2021/01/09 11:47:58;;;;;;;5.68;3.00;;;13.90;65.20;;;;;;5038761;28;20388;-84
2021/01/09 11:50:23;;;;;;;8.45;3.28;;;14.00;64.50;;;;;;5074175;28;20515;-84
2021/01/09 11:52:49;;;;;;;6.95;3.47;;;13.90;63.80;;;;;;5056026;28;20055;-84
2021/01/09 11:55:15;;;;;;;6.75;3.15;;;13.60;62.20;;;;;;5058959;28;20580;-85
2021/01/09 11:57:40;;;;;;;7.10;3.35;;;13.30;62.30;;;;;;5086503;28;20035;-86
2021/01/09 12:00:10;;;;;;;7.20;3.30;;;13.10;62.50;;;;;;5092158;28;20021;-84
2021/01/09 12:02:37;;;;;;;8.57;3.63;;;12.80;62.20;;;;;;5076247;28;20020;-83
2021/01/09 12:05:04;;;;;;;10.02;3.33;;;12.70;62.90;;;;;;5093094;28;20116;-83
2021/01/09 12:07:30;;;;;;;10.40;3.40;;;12.70;63.30;;;;;;5072650;28;20427;-85
2021/01/09 12:09:55;;;;;;;7.18;3.53;;;12.90;63.80;;;;;;5089213;28;20032;-84
2021/01/09 12:12:21;;;;;;;6.40;2.88;;;13.30;64.40;;;;;;5072325;28;20029;-84
2021/01/09 12:14:46;;;;;;;7.03;2.85;;;13.90;64.20;;;;;;5075888;28;20081;-85
2021/01/09 12:17:12;;;;;;;6.40;2.90;;;14.40;64.00;;;;;;5081056;28;20020;-85
2021/01/09 12:19:37;;;;;;;9.65;3.08;;;14.80;63.20;;;;;;5056001;28;20050;-85
2021/01/09 12:22:03;;;;;;;8.65;3.08;;;15.40;62.50;;;;;;5056061;28;20116;-83
2021/01/09 12:24:29;;;;;;;8.85;3.03;;;15.90;62.10;;;;;;5088371;28;20058;-86
2021/01/09 12:26:55;;;;;;;8.48;3.08;;;16.40;60.90;;;;;;5095887;28;20052;-86
2021/01/09 12:29:21;;;;;;;4.88;2.25;;;16.60;59.80;;;;;;5077518;28;20383;-86
2021/01/09 12:31:47;;;;;;;5.97;2.95;;;16.70;59.10;;;;;;5095592;28;20506;-85
2021/01/09 12:34:14;;;;;;;8.20;2.88;;;16.90;58.00;;;;;;5092415;28;20110;-86
2021/01/09 12:36:40;;;;;;;5.55;2.47;;;17.30;57.00;;;;;;5076061;28;20028;-85
2021/01/09 12:39:06;;;;;;;5.55;2.42;;;17.70;56.50;;;;;;5094017;28;20032;-84
2021/01/09 12:41:39;;;;;;;7.88;2.40;;;18.00;55.70;;;;;;5093888;28;20032;-85
2021/01/09 12:44:07;;;;;;;7.53;2.20;;;18.40;54.10;;;;;;5092969;28;20078;-85
2021/01/09 12:46:36;;;;;;;5.47;2.08;;;18.70;54.10;;;;;;5092378;28;20195;-84
2021/01/09 12:49:03;;;;;;;6.75;1.27;;;18.90;52.30;;;;;;5092519;28;20039;-84